createdAt,value
2022-09-26T00:01:14.103Z,95.86
2022-09-26T00:04:23.388Z,96.07
2022-09-26T00:07:29.275Z,96.15
2022-09-26T00:10:36.581Z,96.02
2022-09-26T00:13:43.781Z,95.90
2022-09-26T00:16:51.087Z,95.41
2022-09-26T00:19:56.037Z,95.23
2022-09-26T00:23:03.035Z,95.11
2022-09-26T00:26:10.628Z,95.15
2022-09-26T00:29:16.541Z,94.41
2022-09-26T00:32:21.417Z,94.98
2022-09-26T00:35:26.371Z,94.71
2022-09-26T00:38:31.384Z,94.72
2022-09-26T00:41:38.436Z,94.80
2022-09-26T00:44:55.058Z,94.38
2022-09-26T00:48:02.907Z,93.72
2022-09-26T00:51:08.372Z,94.14
2022-09-26T00:54:15.812Z,94.70
2022-09-26T00:57:28.674Z,94.62
2022-09-26T01:00:34.268Z,94.06
2022-09-26T01:03:41.766Z,94.14
2022-09-26T01:06:47.693Z,94.29
2022-09-26T01:09:52.426Z,94.35
2022-09-26T01:12:57.929Z,94.50
2022-09-26T01:16:00.562Z,94.21
2022-09-26T01:19:07.383Z,94.19
2022-09-26T01:22:43.758Z,94.16
2022-09-26T01:26:13.677Z,93.81
2022-09-26T01:29:47.422Z,93.65
2022-09-26T01:33:28.771Z,94.31
2022-09-26T01:37:01.733Z,94.26
2022-09-26T01:40:11.854Z,93.50
2022-09-26T01:43:23.297Z,93.68
2022-09-26T01:46:35.299Z,93.97
2022-09-26T01:49:47.358Z,94.48
2022-09-26T01:52:56.672Z,95.02
2022-09-26T01:56:05.650Z,94.95
2022-09-26T01:59:13.047Z,95.39
2022-09-26T02:02:25.462Z,95.25
2022-09-26T02:05:33.566Z,96.39
2022-09-26T02:08:41.678Z,96.04
2022-09-26T02:11:48.338Z,96.46
2022-09-26T02:14:53.331Z,96.62
2022-09-26T02:18:01.544Z,97.19
2022-09-26T02:21:07.791Z,96.67
2022-09-26T02:24:12.258Z,96.22
2022-09-26T02:27:15.011Z,96.04
2022-09-26T02:30:17.949Z,96.41
2022-09-26T02:33:21.081Z,96.24
2022-09-26T02:36:24.758Z,95.62
2022-09-26T02:39:28.855Z,95.55
2022-09-26T02:42:36.517Z,95.45
2022-09-26T02:45:45.471Z,95.23
2022-09-26T02:49:01.855Z,95.81
2022-09-26T02:52:19.858Z,95.69
2022-09-26T02:55:32.001Z,96.13
2022-09-26T02:58:47.481Z,95.45
2022-09-26T03:01:56.505Z,95.55
2022-09-26T03:05:03.675Z,95.60
2022-09-26T03:08:11.469Z,95.73
2022-09-26T03:11:21.523Z,95.79
2022-09-26T03:14:24.128Z,95.86
2022-09-26T03:17:29.005Z,95.78
2022-09-26T03:20:31.818Z,95.31
2022-09-26T03:23:35.225Z,95.16
2022-09-26T03:26:41.321Z,94.86
2022-09-26T03:29:44.249Z,95.49
2022-09-26T03:32:46.893Z,95.16
2022-09-26T03:35:49.509Z,95.24
2022-09-26T03:38:52.305Z,95.17
2022-09-26T03:41:57.534Z,94.79
2022-09-26T03:45:00.534Z,95.40
2022-09-26T03:48:03.576Z,95.03
2022-09-26T03:51:07.910Z,94.92
2022-09-26T03:54:12.327Z,94.88
2022-09-26T03:57:17.875Z,94.61
2022-09-26T04:00:20.483Z,94.22
2022-09-26T04:03:23.083Z,94.22
2022-09-26T04:06:25.929Z,94.55
2022-09-26T04:09:28.837Z,94.93
2022-09-26T04:12:33.359Z,94.28
2022-09-26T04:15:36.680Z,94.41
2022-09-26T04:18:39.392Z,93.97
2022-09-26T04:21:42.965Z,93.42
2022-09-26T04:24:45.620Z,93.65
2022-09-26T04:27:49.591Z,92.99
2022-09-26T04:30:52.207Z,92.39
2022-09-26T04:33:55.813Z,91.87
2022-09-26T04:36:59.284Z,91.23
2022-09-26T04:40:02.355Z,91.45
2022-09-26T04:43:06.355Z,91.67
2022-09-26T04:46:11.617Z,91.52
2022-09-26T04:49:14.378Z,91.65
2022-09-26T04:52:17.063Z,91.20
2022-09-26T04:55:19.728Z,91.74
2022-09-26T04:58:23.801Z,91.62
2022-09-26T05:01:27.494Z,91.47
2022-09-26T05:04:33.579Z,90.51
2022-09-26T05:07:40.763Z,91.22
2022-09-26T05:10:43.776Z,90.75
2022-09-26T05:13:53.547Z,90.79
2022-09-26T05:16:56.739Z,90.48
2022-09-26T05:20:00.426Z,90.42
2022-09-26T05:23:04.618Z,90.14
2022-09-26T05:26:20.938Z,90.68
2022-09-26T05:29:24.893Z,90.92
2022-09-26T05:32:29.019Z,91.17
2022-09-26T05:35:34.743Z,90.99
2022-09-26T05:38:37.682Z,91.56
2022-09-26T05:41:39.350Z,92.05
2022-09-26T05:44:43.373Z,92.18
2022-09-26T05:47:48.652Z,91.92
2022-09-26T05:50:51.352Z,92.47
2022-09-26T05:53:53.987Z,92.61
2022-09-26T05:56:56.629Z,92.38
2022-09-26T06:00:02.374Z,92.48
2022-09-26T06:03:05.219Z,92.35
2022-09-26T06:06:10.436Z,92.63
2022-09-26T06:09:13.106Z,93.39
2022-09-26T06:12:19.600Z,93.17
2022-09-26T06:15:24.864Z,93.83
2022-09-26T06:18:27.862Z,93.76
2022-09-26T06:21:30.634Z,93.77
2022-09-26T06:24:33.258Z,93.80
2022-09-26T06:27:38.526Z,93.86
2022-09-26T06:30:42.953Z,94.09
2022-09-26T06:33:50.102Z,94.42
2022-09-26T06:36:52.879Z,95.26
2022-09-26T06:39:59.195Z,95.31
2022-09-26T06:43:02.395Z,94.55
2022-09-26T06:46:08.723Z,94.43
2022-09-26T06:49:11.362Z,94.81
2022-09-26T06:52:14.053Z,94.65
2022-09-26T06:55:17.147Z,94.91
2022-09-26T06:58:20.209Z,94.39
2022-09-26T07:01:24.289Z,94.46
2022-09-26T07:04:27.470Z,93.51
2022-09-26T07:07:30.783Z,93.01
2022-09-26T07:10:36.022Z,93.37
2022-09-26T07:13:39.095Z,93.10
2022-09-26T07:16:43.192Z,92.76
2022-09-26T07:19:46.823Z,91.74
2022-09-26T07:22:49.647Z,89.95
2022-09-26T07:25:53.065Z,89.22
2022-09-26T07:28:56.677Z,88.15
2022-09-26T07:32:01.191Z,84.82
2022-09-26T07:35:04.216Z,83.79
2022-09-26T07:38:06.938Z,82.45
2022-09-26T07:41:10.850Z,80.96
2022-09-26T07:47:54.999Z,80.10
2022-09-26T07:50:59.407Z,80.48
2022-09-26T07:54:02.248Z,81.12
2022-09-26T07:57:05.604Z,79.82
2022-09-26T08:00:12.803Z,77.82
2022-09-26T08:03:17.063Z,76.56
2022-09-26T08:06:20.854Z,75.94
2022-09-26T08:09:23.492Z,76.32
2022-09-26T08:12:26.984Z,75.96
2022-09-26T08:15:29.611Z,75.70
2022-09-26T08:18:34.511Z,75.56
2022-09-26T08:21:37.114Z,75.45
2022-09-26T08:24:40.014Z,75.51
2022-09-26T08:27:43.440Z,75.96
2022-09-26T08:30:46.593Z,75.65
2022-09-26T08:33:50.634Z,74.93
2022-09-26T08:36:54.703Z,74.27
2022-09-26T08:39:57.464Z,74.38
2022-09-26T08:43:07.421Z,73.22
2022-09-26T08:46:44.581Z,73.22
2022-09-26T08:50:09.961Z,69.83
2022-09-26T08:53:17.766Z,70.78
2022-09-26T08:56:23.766Z,70.25
2022-09-26T08:59:29.758Z,70.17
2022-09-26T09:02:38.961Z,70.42
2022-09-26T09:05:46.691Z,69.74
2022-09-26T09:08:51.790Z,68.65
2022-09-26T09:12:11.283Z,66.84
2022-09-26T09:15:28.869Z,64.97
2022-09-26T09:18:42.706Z,62.52
2022-09-26T09:22:01.650Z,63.49
2022-09-26T09:25:10.849Z,62.60
2022-09-26T09:28:32.203Z,61.00
2022-09-26T09:31:38.872Z,58.79
2022-09-26T09:34:50.132Z,59.68
2022-09-26T09:37:57.824Z,54.91
2022-09-26T09:41:05.357Z,54.78
2022-09-26T09:44:20.875Z,56.12
2022-09-26T09:47:23.662Z,54.33
2022-09-26T09:50:40.643Z,54.73
2022-09-26T09:54:09.193Z,53.08
2022-09-26T09:57:31.357Z,51.50
2022-09-26T10:00:41.373Z,51.52
2022-09-26T10:03:55.944Z,50.19
2022-09-26T10:06:59.749Z,48.86
2022-09-26T10:10:04.776Z,50.17
2022-09-26T10:13:09.096Z,50.91
2022-09-26T10:16:15.294Z,51.72
2022-09-26T10:19:18.157Z,50.99
2022-09-26T10:22:29.182Z,51.84
2022-09-26T10:25:33.209Z,51.70
2022-09-26T10:28:45.061Z,48.50
2022-09-26T10:31:55.297Z,48.92
2022-09-26T10:35:19.788Z,49.63
2022-09-26T10:38:27.191Z,50.00
2022-09-26T10:41:30.218Z,52.56
2022-09-26T10:44:34.679Z,51.64
2022-09-26T10:47:38.929Z,52.33
2022-09-26T10:50:51.383Z,51.92
2022-09-26T10:53:58.675Z,51.42
2022-09-26T10:57:04.987Z,53.09
2022-09-26T11:00:09.000Z,51.77
2022-09-26T11:03:14.073Z,51.22
2022-09-26T11:06:25.495Z,49.96
2022-09-26T11:09:28.833Z,51.27
2022-09-26T11:12:39.508Z,52.02
2022-09-26T11:15:43.061Z,56.45
2022-09-26T11:18:52.731Z,57.04
2022-09-26T11:22:07.282Z,57.13
2022-09-26T11:25:17.074Z,54.80
2022-09-26T11:28:25.020Z,54.36
2022-09-26T11:31:30.223Z,51.64
2022-09-26T11:34:36.143Z,52.02
2022-09-26T11:38:05.582Z,50.54
2022-09-26T11:41:36.660Z,51.24
2022-09-26T11:44:54.542Z,50.85
2022-09-26T11:48:18.541Z,51.30
2022-09-26T11:51:40.711Z,53.70
2022-09-26T11:55:08.365Z,52.33
2022-09-26T11:58:21.862Z,52.81
2022-09-26T12:01:38.114Z,53.99
2022-09-26T12:04:57.417Z,58.21
2022-09-26T12:08:14.750Z,64.96
2022-09-26T12:11:26.857Z,69.53
2022-09-26T12:14:42.593Z,70.57
2022-09-26T12:17:59.440Z,70.23
2022-09-26T12:21:17.642Z,72.10
2022-09-26T12:24:27.170Z,71.32
2022-09-26T12:27:36.994Z,66.77
2022-09-26T12:30:48.162Z,69.41
2022-09-26T12:34:12.273Z,65.81
2022-09-26T12:37:32.634Z,64.50
2022-09-26T12:40:40.454Z,63.15
2022-09-26T12:44:08.626Z,57.52
2022-09-26T12:47:43.356Z,61.64
2022-09-26T12:50:56.217Z,57.14
2022-09-26T12:54:20.175Z,55.75
2022-09-26T12:57:30.949Z,55.89
2022-09-26T13:00:40.901Z,55.85
2022-09-26T13:04:15.006Z,54.64
2022-09-26T13:07:34.531Z,56.22
2022-09-26T13:10:48.805Z,56.30
2022-09-26T13:14:38.272Z,53.59
2022-09-26T13:17:46.025Z,53.53
2022-09-26T13:20:53.762Z,54.72
2022-09-26T13:24:02.025Z,55.25
2022-09-26T13:27:13.421Z,52.41
2022-09-26T13:30:19.602Z,53.41
2022-09-26T13:33:28.389Z,52.23
2022-09-26T13:36:32.365Z,53.01
2022-09-26T13:39:47.986Z,53.03
2022-09-26T13:43:02.947Z,54.81
2022-09-26T13:46:16.092Z,52.10
2022-09-26T13:49:37.503Z,51.36
2022-09-26T13:52:52.253Z,48.96
2022-09-26T13:56:49.442Z,50.35
2022-09-26T13:59:54.331Z,51.86
2022-09-26T14:03:39.941Z,53.50
2022-09-26T14:07:03.894Z,55.09
2022-09-26T14:10:18.475Z,53.37
2022-09-26T14:13:35.868Z,51.74
2022-09-26T14:16:39.420Z,51.70
2022-09-26T14:19:46.620Z,53.36
2022-09-26T14:22:54.009Z,54.65
2022-09-26T14:26:05.362Z,53.39
2022-09-26T14:29:31.298Z,54.26
2022-09-26T14:32:38.631Z,54.47
2022-09-26T14:35:43.158Z,55.14
2022-09-26T14:38:47.817Z,54.45
2022-09-26T14:41:50.998Z,56.22
2022-09-26T14:44:59.613Z,55.84
2022-09-26T14:48:09.798Z,56.47
2022-09-26T14:51:25.718Z,56.62
2022-09-26T14:54:35.445Z,56.12
2022-09-26T14:57:38.824Z,57.77
2022-09-26T15:00:47.517Z,58.04
2022-09-26T15:03:54.887Z,57.92
2022-09-26T15:07:02.582Z,57.71
2022-09-26T15:10:10.358Z,56.86
2022-09-26T15:13:28.088Z,56.70
2022-09-26T15:16:37.374Z,56.30
2022-09-26T15:19:49.094Z,56.71
2022-09-26T15:22:57.137Z,57.29
2022-09-26T15:26:02.870Z,57.24
2022-09-26T15:29:07.996Z,56.89
2022-09-26T15:32:16.834Z,58.67
2022-09-26T15:35:20.480Z,60.28
2022-09-26T15:38:24.921Z,58.99
2022-09-26T15:41:45.303Z,59.01
2022-09-26T15:44:50.965Z,59.10
2022-09-26T15:47:56.351Z,59.13
2022-09-26T15:51:05.619Z,58.75
2022-09-26T15:54:20.326Z,59.28
2022-09-26T15:57:25.337Z,59.54
2022-09-26T16:00:33.401Z,59.17
2022-09-26T16:03:45.726Z,59.47
2022-09-26T16:06:57.982Z,59.75
2022-09-26T16:10:01.180Z,59.67
2022-09-26T16:13:03.937Z,60.38
2022-09-26T16:16:09.619Z,61.30
2022-09-26T16:19:30.183Z,60.41
2022-09-26T16:22:40.417Z,60.97
2022-09-26T16:25:56.409Z,61.79
2022-09-26T16:29:00.255Z,61.53
2022-09-26T16:32:04.194Z,61.29
2022-09-26T16:35:19.592Z,62.45
2022-09-26T16:38:28.439Z,61.93
2022-09-26T16:45:14.805Z,62.12
2022-09-26T16:48:41.006Z,61.83
2022-09-26T16:52:13.033Z,61.73
2022-09-26T16:55:16.258Z,62.05
2022-09-26T16:58:19.166Z,62.61
2022-09-26T17:01:39.768Z,63.13
2022-09-26T17:04:44.182Z,62.92
2022-09-26T17:07:50.256Z,63.22
2022-09-26T17:10:56.526Z,63.57
2022-09-26T17:13:59.771Z,64.15
2022-09-26T17:17:03.942Z,64.46
2022-09-26T17:20:12.710Z,64.66
2022-09-26T17:23:38.729Z,64.47
2022-09-26T17:26:43.422Z,65.22
2022-09-26T17:29:48.587Z,65.32
2022-09-26T17:32:54.207Z,64.96
2022-09-26T17:35:57.084Z,64.68
2022-09-26T17:39:02.593Z,64.74
2022-09-26T17:42:05.741Z,64.27
2022-09-26T17:45:10.079Z,64.17
2022-09-26T17:48:16.454Z,64.60
2022-09-26T17:51:21.569Z,65.09
2022-09-26T17:54:31.108Z,66.02
2022-09-26T17:57:38.278Z,65.49
2022-09-26T18:00:44.350Z,65.98
2022-09-26T18:03:47.138Z,65.60
2022-09-26T18:06:49.998Z,65.76
2022-09-26T18:09:54.857Z,65.94
2022-09-26T18:13:00.234Z,65.98
2022-09-26T18:16:03.623Z,65.42
2022-09-26T18:19:07.702Z,65.40
2022-09-26T18:22:16.562Z,64.83
2022-09-26T18:25:23.880Z,64.75
2022-09-26T18:28:27.194Z,65.45
2022-09-26T18:31:32.097Z,65.45
2022-09-26T18:34:34.979Z,66.10
2022-09-26T18:37:38.183Z,66.57
2022-09-26T18:40:46.141Z,67.15
2022-09-26T18:43:52.019Z,67.75
2022-09-26T18:47:00.965Z,67.21
2022-09-26T18:50:05.250Z,68.37
2022-09-26T18:53:14.634Z,68.90
2022-09-26T18:56:36.274Z,68.69
2022-09-26T18:59:39.006Z,69.12
2022-09-26T19:02:43.142Z,69.08
2022-09-26T19:05:46.408Z,69.35
2022-09-26T19:08:54.007Z,69.50
2022-09-26T19:12:00.896Z,68.90
2022-09-26T19:15:15.384Z,69.74
2022-09-26T19:18:21.418Z,70.24
2022-09-26T19:21:33.388Z,70.30
2022-09-26T19:24:41.788Z,70.39
2022-09-26T19:27:53.710Z,71.75
2022-09-26T19:31:01.447Z,71.16
2022-09-26T19:34:07.528Z,71.80
2022-09-26T19:37:14.338Z,70.10
2022-09-26T19:40:21.226Z,66.73
2022-09-26T19:43:28.310Z,65.73
2022-09-26T19:46:34.734Z,65.36
2022-09-26T19:49:39.989Z,64.80
2022-09-26T19:52:45.996Z,64.73
2022-09-26T19:55:51.319Z,64.43
2022-09-26T19:58:59.493Z,64.47
2022-09-26T20:02:04.846Z,64.35
2022-09-26T20:05:17.867Z,64.33
2022-09-26T20:08:24.180Z,64.59
2022-09-26T20:11:28.928Z,64.49
2022-09-26T20:14:35.442Z,63.82
2022-09-26T20:17:40.544Z,64.59
2022-09-26T20:20:49.018Z,64.74
2022-09-26T20:23:54.109Z,65.04
2022-09-26T20:27:00.623Z,64.79
2022-09-26T20:30:29.039Z,65.78
2022-09-26T20:33:36.028Z,65.49
2022-09-26T20:36:46.538Z,65.83
2022-09-26T20:39:53.025Z,66.98
2022-09-26T20:43:02.510Z,69.40
2022-09-26T20:46:12.336Z,71.38
2022-09-26T20:49:20.589Z,73.58
2022-09-26T20:52:28.839Z,73.72
2022-09-26T20:55:34.087Z,72.77
2022-09-26T20:58:39.573Z,73.74
2022-09-26T21:01:46.382Z,73.38
2022-09-26T21:04:52.802Z,74.56
2022-09-26T21:08:00.303Z,72.80
2022-09-26T21:11:07.573Z,72.20
2022-09-26T21:14:12.304Z,71.46
2022-09-26T21:17:21.546Z,72.18
2022-09-26T21:20:28.687Z,71.58
2022-09-26T21:23:35.959Z,72.42
2022-09-26T21:26:41.024Z,71.38
2022-09-26T21:29:45.791Z,71.95
2022-09-26T21:32:54.924Z,72.31
2022-09-26T21:36:00.698Z,72.85
2022-09-26T21:39:06.951Z,71.65
2022-09-26T21:42:13.237Z,72.88
2022-09-26T21:45:17.945Z,72.39
2022-09-26T21:48:24.627Z,73.67
2022-09-26T21:51:31.209Z,75.27
2022-09-26T21:54:42.805Z,74.14
2022-09-26T21:57:50.894Z,74.30
2022-09-26T22:00:56.105Z,75.56
2022-09-26T22:04:02.923Z,76.51
2022-09-26T22:07:08.038Z,77.27
2022-09-26T22:10:16.308Z,76.64
2022-09-26T22:13:21.408Z,76.77
2022-09-26T22:16:27.170Z,75.57
2022-09-26T22:19:40.774Z,76.69
2022-09-26T22:22:45.968Z,76.73
2022-09-26T22:25:51.827Z,75.97
2022-09-26T22:28:57.203Z,77.02
2022-09-26T22:32:03.289Z,77.10
2022-09-26T22:35:10.545Z,77.57
2022-09-26T22:38:15.752Z,77.82
2022-09-26T22:41:21.051Z,77.26
2022-09-26T22:44:26.404Z,75.74
2022-09-26T22:47:31.275Z,76.38
2022-09-26T22:50:37.414Z,76.95
2022-09-26T22:53:43.603Z,78.47
2022-09-26T22:56:48.809Z,78.56
2022-09-26T22:59:53.786Z,79.59
2022-09-26T23:02:58.790Z,80.64
2022-09-26T23:06:06.193Z,80.45
2022-09-26T23:09:11.159Z,80.70
2022-09-26T23:12:16.667Z,80.49
2022-09-26T23:15:21.887Z,81.19
2022-09-26T23:18:28.870Z,80.37
2022-09-26T23:21:35.454Z,81.44
2022-09-26T23:24:40.468Z,81.80
2022-09-26T23:27:45.372Z,82.19
2022-09-26T23:30:50.511Z,81.73
2022-09-26T23:33:56.129Z,81.88
2022-09-26T23:37:02.692Z,82.14
2022-09-26T23:40:08.314Z,82.82
2022-09-26T23:43:13.766Z,83.43
2022-09-26T23:46:19.060Z,83.03
2022-09-26T23:49:23.976Z,82.98
2022-09-26T23:52:30.551Z,82.95
2022-09-26T23:55:35.524Z,82.53
2022-09-26T23:58:40.787Z,82.56
